createdAt,value
2017-08-20T07:39:34.163Z,8.8
2017-08-20T07:41:38.037Z,8.1
2017-08-20T07:43:42.290Z,8.6
2017-08-20T07:44:23.800Z,8.8
2017-08-20T07:45:04.683Z,9.9
2017-08-20T07:45:45.950Z,9.0
2017-08-20T07:46:26.925Z,8.8
2017-08-20T07:47:07.713Z,8.9
2017-08-20T07:47:48.868Z,10.1
2017-08-20T07:48:30.140Z,9.9
2017-08-20T07:49:11.528Z,9.9
2017-08-20T07:49:52.496Z,8.7
2017-08-20T07:50:33.574Z,8.1
2017-08-20T07:51:14.385Z,8.9
2017-08-20T07:51:55.256Z,9.5
2017-08-20T07:52:36.236Z,9.2
2017-08-20T07:53:17.222Z,8.5
2017-08-20T07:54:00.002Z,8.7
2017-08-20T07:54:40.857Z,7.9
2017-08-20T07:55:21.627Z,8.2
2017-08-20T07:56:02.419Z,8.0
2017-08-20T07:56:43.391Z,7.8
2017-08-20T07:57:24.467Z,7.8
2017-08-20T07:58:05.358Z,8.2
2017-08-20T07:58:46.024Z,9.1
2017-08-20T07:59:27.059Z,7.8
2017-08-20T08:00:08.271Z,7.6
2017-08-20T08:00:49.952Z,7.5
2017-08-20T08:01:31.731Z,7.8
2017-08-20T08:02:13.450Z,7.6
2017-08-20T08:02:55.061Z,8.3
2017-08-20T08:03:37.139Z,8.9
2017-08-20T08:04:17.915Z,9.0
2017-08-20T08:04:58.697Z,8.6
2017-08-20T08:05:40.265Z,8.9
2017-08-20T08:06:21.256Z,9.0
2017-08-20T08:07:02.228Z,7.6
2017-08-20T08:07:43.120Z,7.2
2017-08-20T08:08:23.894Z,8.1
2017-08-20T08:09:04.779Z,8.2
2017-08-20T08:09:45.548Z,8.3
2017-08-20T08:10:26.626Z,7.8
2017-08-20T08:11:07.629Z,7.1
2017-08-20T08:11:48.600Z,7.5
2017-08-20T08:12:30.089Z,8.1
2017-08-20T08:13:11.066Z,8.3
2017-08-20T08:13:51.941Z,8.3
2017-08-20T08:14:32.805Z,8.3
2017-08-20T08:15:14.186Z,8.8
2017-08-20T08:15:54.962Z,9.3
2017-08-20T08:16:40.727Z,8.4
2017-08-20T08:17:26.672Z,7.9
2017-08-20T08:19:52.083Z,8.0
2017-08-20T08:20:34.582Z,6.7
2017-08-20T08:21:16.604Z,7.4
2017-08-20T08:23:44.305Z,7.0
2017-08-20T08:26:21.966Z,6.2
2017-08-20T08:27:10.776Z,7.0
2017-08-20T08:27:59.798Z,6.7
2017-08-20T08:28:50.922Z,6.4
2017-08-20T08:29:36.392Z,6.7
2017-08-20T08:30:35.279Z,7.0
2017-08-20T08:31:24.682Z,6.4
2017-08-20T08:35:41.596Z,6.3
